Time;durP1;ratioP1;P1;durP2;ratioP2;P2;SDS_P1;SDS_P2;PMS_P1;PMS_P2;Temp;Humidity;BMP_temperature;BMP_pressure;BME280_temperature;BME280_humidity;BME280_pressure;Samples;Min_cycle;Max_cycle;Signal;HPM_P1;HPM_P2
2021/06/25 00:03:47;;;;;;;29.35;20.90;;;;;;;19.06;93.74;98535.20;263358;1092;22776;-80
2021/06/25 00:08:50;;;;;;;36.65;24.85;;;;;;;18.88;93.41;98523.91;263050;1092;25803;-79
2021/06/25 00:13:56;;;;;;;40.40;26.03;;;;;;;18.89;93.86;98566.20;263626;1091;22786;-79
2021/06/25 00:19:01;;;;;;;34.10;25.47;;;;;;;18.86;93.41;98548.66;263306;1093;22755;-80
2021/06/25 00:24:05;;;;;;;36.30;24.40;;;;;;;18.76;92.91;98589.84;261850;1093;22883;-78
2021/06/25 00:29:09;;;;;;;30.85;22.30;;;;;;;18.56;93.84;98671.09;262259;1091;22939;-78
2021/06/25 00:34:14;;;;;;;27.95;21.65;;;;;;;18.43;93.56;98599.83;262206;1093;25915;-79
2021/06/25 00:39:18;;;;;;;29.70;21.20;;;;;;;18.36;93.13;98620.55;262860;1093;22834;-79
2021/06/25 00:44:34;;;;;;;33.15;23.05;;;;;;;18.28;93.64;98555.25;262372;1091;22827;-78
2021/06/25 00:49:40;;;;;;;29.37;21.40;;;;;;;18.24;93.92;98578.79;261870;1092;23337;-78
2021/06/25 00:54:44;;;;;;;29.20;19.50;;;;;;;18.24;94.25;98632.20;262028;1093;22770;-78
2021/06/25 00:59:47;;;;;;;33.10;22.35;;;;;;;18.21;94.40;98698.73;262942;1091;24358;-78
2021/06/25 01:04:52;;;;;;;34.33;21.80;;;;;;;18.26;94.80;98693.09;262939;1093;25906;-79
2021/06/25 01:09:56;;;;;;;28.23;19.90;;;;;;;18.32;94.89;98654.91;262980;1092;22901;-79
2021/06/25 01:15:05;;;;;;;30.27;20.10;;;;;;;18.27;94.59;98621.47;263202;1092;22851;-80
2021/06/25 01:20:12;;;;;;;32.20;20.33;;;;;;;18.18;94.12;98639.78;263777;1093;25167;-80
2021/06/25 01:25:29;;;;;;;26.03;17.77;;;;;;;18.11;94.08;98645.78;264057;1092;25877;-80
2021/06/25 01:30:42;;;;;;;28.40;18.43;;;;;;;18.08;94.32;98643.76;264115;1093;22778;-81
2021/06/25 01:35:46;;;;;;;33.00;19.80;;;;;;;18.04;94.17;98606.84;264220;1093;24201;-80
2021/06/25 01:40:49;;;;;;;28.65;18.00;;;;;;;18.09;94.93;98606.59;264153;1092;22814;-80
2021/06/25 01:45:55;;;;;;;28.00;19.35;;;;;;;18.12;95.28;98603.22;264028;1093;22929;-81
2021/06/25 01:50:58;;;;;;;26.40;16.95;;;;;;;18.14;95.38;98619.91;263949;1092;23056;-82
2021/06/25 01:56:03;;;;;;;25.80;16.65;;;;;;;18.17;94.75;98583.98;264012;1092;22786;-82
2021/06/25 02:01:18;;;;;;;30.25;19.15;;;;;;;18.15;94.62;98548.31;264014;1093;23633;-83
2021/06/25 02:06:28;;;;;;;30.75;19.00;;;;;;;18.09;94.35;98576.77;263826;1093;26037;-83
2021/06/25 02:11:32;;;;;;;33.15;19.00;;;;;;;18.05;94.74;98573.97;263885;1092;24420;-84
2021/06/25 02:16:37;;;;;;;34.15;20.90;;;;;;;18.06;95.14;98561.20;264142;1091;22775;-83
2021/06/25 02:21:41;;;;;;;30.75;20.10;;;;;;;18.09;95.14;98549.67;263880;1093;22843;-83
2021/06/25 02:26:44;;;;;;;32.45;21.50;;;;;;;18.08;95.51;98531.84;263771;1093;22773;-83
2021/06/25 02:31:52;;;;;;;32.65;21.50;;;;;;;18.11;96.12;98529.22;263923;1092;25835;-83
2021/06/25 02:36:55;;;;;;;28.35;18.70;;;;;;;18.06;95.34;98507.00;264250;1093;26025;-83
2021/06/25 02:42:07;;;;;;;32.80;21.80;;;;;;;18.01;95.12;98516.17;264151;1091;25858;-84
2021/06/25 02:47:10;;;;;;;38.40;24.70;;;;;;;18.00;95.55;98509.16;264069;1093;22778;-83
2021/06/25 02:52:13;;;;;;;47.10;28.50;;;;;;;17.99;95.62;98529.26;263824;1092;22868;-84
2021/06/25 02:57:17;;;;;;;43.15;25.85;;;;;;;18.01;95.65;98531.66;263968;1091;22765;-84
2021/06/25 03:02:20;;;;;;;49.35;29.25;;;;;;;17.97;95.80;98547.02;264252;1092;23442;-83
2021/06/25 03:07:43;;;;;;;50.35;30.15;;;;;;;17.98;95.92;98514.16;264164;1091;22918;-84
2021/06/25 03:12:47;;;;;;;38.95;24.35;;;;;;;17.98;95.49;98532.31;263870;1092;25892;-83
2021/06/25 03:18:04;;;;;;;40.30;26.00;;;;;;;17.89;94.83;98541.37;264364;1092;23623;-84
2021/06/25 03:23:15;;;;;;;42.17;25.50;;;;;;;17.86;94.63;98554.80;263999;1092;23315;-83
2021/06/25 03:28:19;;;;;;;46.55;26.35;;;;;;;17.89;95.38;98571.17;263542;1092;25861;-84
2021/06/25 03:33:28;;;;;;;58.80;29.50;;;;;;;17.98;95.95;98575.67;263546;1093;22925;-84
2021/06/25 03:38:32;;;;;;;58.45;33.30;;;;;;;18.03;96.08;98581.64;263798;1092;26271;-84
2021/06/25 03:43:36;;;;;;;55.70;31.40;;;;;;;18.09;95.93;98587.61;263713;1092;22777;-84
2021/06/25 03:48:40;;;;;;;54.90;30.60;;;;;;;18.13;95.49;98585.80;263942;1093;26251;-84
2021/06/25 03:53:43;;;;;;;58.65;32.50;;;;;;;18.21;96.20;98582.16;263756;1092;22783;-83
2021/06/25 03:58:48;;;;;;;49.93;28.33;;;;;;;18.30;96.19;98584.75;263680;1092;22872;-83
2021/06/25 04:03:51;;;;;;;38.90;24.95;;;;;;;18.35;96.07;98589.14;264215;1092;22845;-83
2021/06/25 04:08:55;;;;;;;47.75;29.65;;;;;;;18.43;96.37;98588.98;264000;1092;22721;-82
2021/06/25 04:14:05;;;;;;;41.28;26.90;;;;;;;18.55;95.93;98595.48;263557;1092;25983;-83
2021/06/25 04:19:08;;;;;;;49.25;28.85;;;;;;;18.69;96.57;98581.52;263800;1092;23333;-83
2021/06/25 04:24:13;;;;;;;40.90;26.45;;;;;;;18.85;96.19;98571.49;263904;1093;27559;-83
2021/06/25 04:29:16;;;;;;;41.90;25.90;;;;;;;18.91;95.62;98569.34;263941;1092;22871;-82
2021/06/25 04:34:21;;;;;;;45.33;26.20;;;;;;;18.96;95.31;98575.30;263749;1092;22822;-83
2021/06/25 04:39:24;;;;;;;41.67;26.17;;;;;;;19.11;95.26;98576.45;263649;1092;22851;-82
2021/06/25 04:44:40;;;;;;;37.23;23.95;;;;;;;19.32;95.00;98578.90;264345;1092;24237;-82
2021/06/25 04:50:03;;;;;;;46.73;26.97;;;;;;;19.52;94.68;98589.03;264193;1092;26027;-84
2021/06/25 04:55:10;;;;;;;47.85;27.18;;;;;;;19.66;94.41;98581.23;264304;1091;25762;-81
2021/06/25 05:00:14;;;;;;;40.03;25.03;;;;;;;19.73;93.71;98577.89;264011;1091;22811;-83
2021/06/25 05:05:18;;;;;;;46.27;28.27;;;;;;;19.84;94.39;98581.66;264186;1092;24284;-82
2021/06/25 05:10:22;;;;;;;43.93;28.47;;;;;;;20.00;94.33;98582.38;264306;1092;22832;-82
2021/06/25 05:15:27;;;;;;;44.80;27.65;;;;;;;20.11;93.68;98585.33;264218;1091;25790;-82
2021/06/25 05:20:30;;;;;;;52.03;30.10;;;;;;;20.14;93.65;98589.27;264809;1091;25733;-83
2021/06/25 05:25:34;;;;;;;51.63;31.67;;;;;;;20.11;93.72;98584.55;264924;1092;24391;-82
2021/06/25 05:30:38;;;;;;;40.47;25.20;;;;;;;20.07;93.70;98589.13;264113;1093;22849;-82
2021/06/25 05:35:42;;;;;;;37.33;23.58;;;;;;;19.93;93.22;98581.45;264315;1092;22844;-81
2021/06/25 05:40:46;;;;;;;36.60;24.45;;;;;;;19.86;93.49;98590.23;264626;1091;22927;-82
2021/06/25 05:45:51;;;;;;;32.60;21.70;;;;;;;19.87;93.78;98599.19;265029;1092;22675;-82
2021/06/25 05:50:55;;;;;;;43.20;25.78;;;;;;;19.89;93.72;98605.83;266172;1092;25741;-82
2021/06/25 05:55:59;;;;;;;37.33;24.50;;;;;;;19.92;94.05;98605.14;265757;1093;22601;-82
2021/06/25 06:01:03;;;;;;;37.93;24.43;;;;;;;20.11;94.20;98604.36;265913;1091;25154;-81
2021/06/25 06:06:06;;;;;;;41.18;24.30;;;;;;;20.31;93.92;98612.53;265893;1092;22767;-82
2021/06/25 06:11:09;;;;;;;33.65;22.48;;;;;;;20.22;92.22;98612.75;266024;1091;22770;-79
2021/06/25 06:16:15;;;;;;;47.43;25.23;;;;;;;19.91;91.94;98616.34;264624;1092;22855;-80
2021/06/25 06:21:21;;;;;;;68.53;31.73;;;;;;;19.35;91.57;98623.58;264458;1092;25234;-80
2021/06/25 06:37:21;;;;;;;63.15;29.55;;;;;;;18.77;93.80;98637.56;264195;1092;22765;-80
2021/06/25 06:42:25;;;;;;;75.73;33.57;;;;;;;18.83;93.72;98635.38;266241;1092;24358;-80
2021/06/25 06:47:34;;;;;;;71.95;31.75;;;;;;;19.01;93.82;98646.75;266384;1092;24061;-81
2021/06/25 06:52:57;;;;;;;60.73;26.70;;;;;;;19.17;93.48;98638.62;265813;1091;22771;-79
2021/06/25 06:58:00;;;;;;;57.88;28.03;;;;;;;19.15;93.05;98647.92;264488;1093;22790;-80
2021/06/25 07:03:05;;;;;;;58.33;28.20;;;;;;;19.13;93.08;98643.97;264033;1093;22813;-80
2021/06/25 07:08:08;;;;;;;56.10;27.33;;;;;;;19.05;92.97;98648.41;264116;1093;22770;-80
2021/06/25 07:13:12;;;;;;;56.13;26.33;;;;;;;19.02;93.07;98642.91;264432;1092;26025;-78
2021/06/25 07:18:17;;;;;;;43.63;23.80;;;;;;;19.09;94.19;98651.23;263141;1092;24043;-79
2021/06/25 07:23:22;;;;;;;48.57;25.37;;;;;;;19.21;93.14;98658.50;263625;1092;23216;-79
2021/06/25 07:28:26;;;;;;;45.37;22.73;;;;;;;19.08;92.41;98674.08;263789;1092;26337;-80
2021/06/25 07:33:30;;;;;;;39.40;21.20;;;;;;;18.85;92.63;98671.91;265518;1092;22808;-80
2021/06/25 07:38:34;;;;;;;38.10;21.13;;;;;;;18.79;92.61;98657.02;264682;1091;23401;-79
2021/06/25 07:43:37;;;;;;;37.10;22.77;;;;;;;18.82;93.02;98650.89;263144;1091;25902;-77
2021/06/25 07:48:40;;;;;;;33.73;19.60;;;;;;;19.07;93.79;98635.30;264677;1092;25742;-80
2021/06/25 07:53:43;;;;;;;39.30;22.40;;;;;;;19.25;92.99;98635.75;264452;1092;25761;-81
2021/06/25 07:58:47;;;;;;;33.77;20.03;;;;;;;19.52;93.00;98633.30;266590;1092;22782;-81
2021/06/25 08:03:50;;;;;;;41.20;25.48;;;;;;;19.74;91.98;98625.64;265521;1093;22779;-80
2021/06/25 08:08:54;;;;;;;38.00;23.40;;;;;;;19.92;91.74;98617.92;266085;1092;25565;-80
2021/06/25 08:14:10;;;;;;;36.35;22.35;;;;;;;20.03;91.26;98635.25;264928;1092;22656;-80
2021/06/25 08:19:15;;;;;;;35.80;22.23;;;;;;;20.17;91.01;98624.70;264906;1093;22846;-79
2021/06/25 08:24:17;;;;;;;33.63;21.00;;;;;;;20.42;91.43;98629.09;264354;1092;22799;-76
2021/06/25 08:29:21;;;;;;;38.63;23.35;;;;;;;20.32;90.49;98631.22;262653;1092;25842;-78
2021/06/25 08:34:25;;;;;;;37.40;23.00;;;;;;;20.06;89.18;98641.92;262399;1092;22764;-78
2021/06/25 08:39:30;;;;;;;37.93;22.47;;;;;;;19.85;89.74;98639.52;262387;1092;22780;-79
2021/06/25 08:44:38;;;;;;;50.63;27.28;;;;;;;19.77;89.38;98654.85;262382;1092;23696;-78
2021/06/25 08:49:47;;;;;;;44.68;24.70;;;;;;;19.66;89.06;98651.88;262634;1091;22934;-78
2021/06/25 08:54:57;;;;;;;43.10;23.60;;;;;;;19.69;89.40;98669.41;262960;1092;26293;-80
2021/06/25 09:00:22;;;;;;;41.03;23.07;;;;;;;19.68;88.62;98662.39;263020;1092;22848;-79
2021/06/25 09:05:28;;;;;;;40.27;23.30;;;;;;;19.72;88.59;98674.13;262456;1092;22771;-78
2021/06/25 09:10:39;;;;;;;42.43;23.77;;;;;;;19.75;88.51;98673.42;262354;1092;22758;-79
2021/06/25 09:15:43;;;;;;;40.10;24.03;;;;;;;19.68;87.92;98686.84;262586;1091;24288;-79
2021/06/25 09:20:50;;;;;;;39.77;22.67;;;;;;;19.51;87.77;98699.63;262732;1092;27510;-79
2021/06/25 09:26:09;;;;;;;37.70;21.13;;;;;;;19.28;88.46;98711.09;263426;1093;22921;-79
2021/06/25 09:31:15;;;;;;;46.23;23.78;;;;;;;19.14;88.25;98705.29;263686;1092;22927;-80
2021/06/25 09:36:24;;;;;;;44.73;25.07;;;;;;;18.96;88.22;98712.95;263917;1093;23779;-80
2021/06/25 09:41:28;;;;;;;46.35;25.53;;;;;;;18.83;88.34;98712.17;264175;1091;22762;-79
2021/06/25 09:46:36;;;;;;;42.50;23.90;;;;;;;18.84;88.94;98705.59;264035;1092;25783;-78
2021/06/25 09:51:55;;;;;;;49.10;25.57;;;;;;;19.13;89.48;98711.84;262774;1093;22833;-79
2021/06/25 09:57:13;;;;;;;41.57;23.90;;;;;;;19.39;88.87;98705.94;262913;1092;23252;-79
2021/06/25 10:02:37;;;;;;;47.93;24.10;;;;;;;19.52;88.07;98709.36;265611;1092;23696;-82
2021/06/25 10:07:41;;;;;;;38.47;23.07;;;;;;;19.58;88.05;98709.89;265598;1092;22764;-80
2021/06/25 10:12:44;;;;;;;41.23;25.87;;;;;;;19.63;87.86;98718.57;265664;1089;22777;-81
2021/06/25 10:17:50;;;;;;;43.03;25.83;;;;;;;19.71;87.99;98724.18;265728;1089;22798;-81
2021/06/25 10:22:56;;;;;;;37.70;23.27;;;;;;;19.77;87.77;98726.29;265471;1089;22775;-81
2021/06/25 10:28:00;;;;;;;36.13;21.93;;;;;;;19.83;87.12;98738.49;265530;1089;22722;-83
2021/06/25 10:33:03;;;;;;;30.33;19.88;;;;;;;19.79;86.46;98740.33;265869;1088;23596;-82
2021/06/25 10:38:12;;;;;;;25.53;17.47;;;;;;;19.79;86.52;98742.24;265172;1090;22868;-79
2021/06/25 10:43:40;;;;;;;22.45;16.28;;;;;;;19.89;86.34;98743.67;263245;1090;22770;-82
2021/06/25 10:48:51;;;;;;;;;;;;;;;19.98;85.60;98750.52;264980;1089;25781;-77
2021/06/25 10:54:10;;;;;;;22.97;15.90;;;;;;;20.01;84.98;98757.18;265237;1090;21460;-79
2021/06/25 10:59:26;;;;;;;23.98;16.08;;;;;;;20.05;85.44;98759.97;264083;1089;22780;-79
2021/06/25 11:04:52;;;;;;;23.00;14.58;;;;;;;20.18;84.73;98759.52;264196;1089;25232;-80
2021/06/25 11:10:26;;;;;;;24.05;16.70;;;;;;;20.24;84.81;98760.03;263787;1090;22820;-79
2021/06/25 11:15:52;;;;;;;21.45;14.40;;;;;;;20.29;83.91;98750.84;263521;1090;24512;-78
2021/06/25 11:20:57;;;;;;;22.03;15.30;;;;;;;20.41;83.78;98755.36;265494;1090;22900;-79
2021/06/25 11:26:02;;;;;;;19.20;14.17;;;;;;;20.50;83.17;98753.24;263903;1088;26054;-78
2021/06/25 11:31:16;;;;;;;18.73;13.88;;;;;;;20.47;82.85;98762.13;263279;1088;22757;-77
2021/06/25 11:36:26;;;;;;;18.90;13.33;;;;;;;20.36;82.98;98764.59;262796;1090;22726;-78
2021/06/25 11:41:39;;;;;;;19.35;12.58;;;;;;;20.44;82.78;98762.81;262861;1090;22837;-75
2021/06/25 11:47:13;;;;;;;18.90;13.25;;;;;;;20.69;82.95;98760.66;263417;1088;22940;-79
2021/06/25 11:52:19;;;;;;;17.68;13.60;;;;;;;21.01;82.45;98752.38;264908;1088;23788;-78
2021/06/25 11:57:25;;;;;;;17.93;14.20;;;;;;;21.27;81.57;98754.44;263378;1088;22712;-80
2021/06/25 12:02:45;;;;;;;18.33;14.85;;;;;;;21.51;81.30;98766.16;264324;1089;27099;-80
2021/06/25 12:08:16;;;;;;;17.43;13.70;;;;;;;21.77;80.91;98756.50;262906;1090;22824;-77
2021/06/25 12:13:22;;;;;;;19.98;13.98;;;;;;;22.28;81.28;98758.10;262853;1089;22902;-76
2021/06/25 12:18:28;;;;;;;15.93;13.15;;;;;;;22.86;79.79;98770.61;263197;1090;23474;-76
2021/06/25 12:23:32;;;;;;;15.70;12.95;;;;;;;23.33;79.17;98773.92;262726;1088;26357;-77
2021/06/25 12:28:43;;;;;;;15.30;11.98;;;;;;;23.79;77.47;98772.82;263184;1090;25983;-77
2021/06/25 12:34:16;;;;;;;14.73;12.95;;;;;;;24.25;76.90;98775.94;262815;1088;22799;-76
2021/06/25 12:39:28;;;;;;;15.10;12.23;;;;;;;24.50;75.55;98771.78;263040;1088;24314;-77
2021/06/25 12:44:32;;;;;;;13.70;10.83;;;;;;;24.36;73.90;98767.81;263272;1089;22821;-78
2021/06/25 12:49:35;;;;;;;12.83;11.53;;;;;;;24.08;74.03;98777.38;263924;1088;22769;-80
2021/06/25 12:54:39;;;;;;;10.53;9.53;;;;;;;23.59;73.94;98767.56;265525;1088;22713;-81
2021/06/25 12:59:47;;;;;;;10.40;9.40;;;;;;;23.26;74.24;98763.70;266124;1089;22844;-81
2021/06/25 13:04:55;;;;;;;11.05;9.95;;;;;;;23.17;74.56;98747.61;265379;1089;25276;-83
2021/06/25 13:10:10;;;;;;;12.43;11.03;;;;;;;23.34;74.59;98745.45;264795;1089;23552;-82
2021/06/25 13:15:15;;;;;;;11.83;10.73;;;;;;;23.30;74.25;98742.66;265300;1089;22806;-82
2021/06/25 13:20:35;;;;;;;11.75;10.55;;;;;;;23.24;73.83;98757.84;265263;1090;22749;-82
2021/06/25 13:25:43;;;;;;;13.23;11.35;;;;;;;23.09;73.19;98748.66;265507;1089;22751;-82
2021/06/25 13:31:02;;;;;;;13.23;11.83;;;;;;;23.11;74.11;98761.94;265262;1088;25717;-82
2021/06/25 13:36:08;;;;;;;12.70;11.50;;;;;;;22.98;73.55;98755.94;264420;1088;25727;-78
2021/06/25 13:41:25;;;;;;;11.40;10.25;;;;;;;22.99;73.71;98747.38;263661;1089;23458;-79
2021/06/25 13:46:29;;;;;;;14.45;11.58;;;;;;;23.01;73.31;98753.23;263373;1089;22762;-81
2021/06/25 13:51:37;;;;;;;12.18;11.05;;;;;;;23.02;73.19;98727.50;265586;1089;25886;-81
2021/06/25 13:56:40;;;;;;;12.08;10.98;;;;;;;23.12;73.78;98741.69;265841;1089;22830;-80
2021/06/25 14:01:50;;;;;;;12.43;11.23;;;;;;;23.35;73.67;98747.80;267098;1088;26300;-81
2021/06/25 14:06:57;;;;;;;11.20;10.18;;;;;;;23.49;73.09;98755.36;266576;1089;22617;-81
2021/06/25 14:12:13;;;;;;;10.65;9.65;;;;;;;23.77;72.78;98751.32;266640;1089;22908;-82
2021/06/25 14:17:32;;;;;;;11.53;10.43;;;;;;;23.91;71.67;98756.16;265556;1090;23205;-81
2021/06/25 14:22:37;;;;;;;10.85;9.85;;;;;;;24.24;71.92;98741.52;265116;1088;22918;-80
2021/06/25 14:27:42;;;;;;;11.10;10.10;;;;;;;24.53;70.84;98738.96;265074;1089;25728;-81
2021/06/25 14:32:46;;;;;;;10.08;9.25;;;;;;;24.50;69.18;98730.72;265171;1088;22787;-81
2021/06/25 14:37:50;;;;;;;11.08;10.13;;;;;;;24.50;69.18;98725.23;265766;1090;23106;-80
2021/06/25 14:42:53;;;;;;;10.30;9.40;;;;;;;24.38;68.39;98715.41;265408;1089;22815;-80
2021/06/25 14:47:59;;;;;;;10.30;9.40;;;;;;;24.36;68.43;98720.50;265548;1088;23135;-81
2021/06/25 14:53:04;;;;;;;11.25;10.23;;;;;;;24.42;68.13;98727.17;266100;1090;23596;-80
2021/06/25 14:58:08;;;;;;;10.63;9.58;;;;;;;24.55;67.94;98727.63;266355;1089;23285;-81
2021/06/25 15:03:14;;;;;;;9.03;8.23;;;;;;;24.62;67.67;98722.20;265862;1090;22742;-81
2021/06/25 15:08:26;;;;;;;9.33;8.43;;;;;;;24.66;67.77;98717.53;265733;1089;22767;-81
2021/06/25 15:13:30;;;;;;;9.90;8.95;;;;;;;24.64;67.13;98703.45;265827;1090;24056;-82
2021/06/25 15:18:35;;;;;;;9.60;8.80;;;;;;;24.61;66.58;98701.48;266317;1088;22898;-80
2021/06/25 15:23:47;;;;;;;8.53;7.83;;;;;;;24.85;66.56;98685.54;265798;1089;23950;-81
2021/06/25 15:28:52;;;;;;;8.45;7.68;;;;;;;25.19;66.05;98699.70;265127;1090;24123;-82
2021/06/25 15:34:01;;;;;;;9.48;8.68;;;;;;;25.47;65.62;98706.43;265436;1089;22756;-81
2021/06/25 15:39:06;;;;;;;9.00;8.28;;;;;;;25.56;65.30;98715.06;265453;1088;24101;-81
2021/06/25 15:44:10;;;;;;;9.08;8.30;;;;;;;25.52;64.17;98719.77;265386;1090;24285;-80
2021/06/25 15:49:13;;;;;;;9.10;8.33;;;;;;;25.34;64.29;98719.73;266149;1090;25963;-81
2021/06/25 15:54:17;;;;;;;9.58;8.73;;;;;;;25.11;64.29;98726.32;265452;1090;22790;-80
2021/06/25 15:59:20;;;;;;;9.23;8.43;;;;;;;24.89;63.84;98719.98;265635;1089;24052;-81
2021/06/25 16:04:24;;;;;;;8.68;7.88;;;;;;;24.51;63.86;98726.81;265432;1090;24315;-81
2021/06/25 16:09:48;;;;;;;8.23;7.53;;;;;;;24.09;63.76;98729.71;265284;1088;25874;-81
2021/06/25 16:15:12;;;;;;;8.38;7.58;;;;;;;24.22;65.25;98719.23;266105;1088;27089;-82
2021/06/25 16:20:18;;;;;;;8.10;7.33;;;;;;;24.45;63.59;98714.67;265526;1089;22742;-81
2021/06/25 16:25:21;;;;;;;7.85;7.25;;;;;;;24.40;63.54;98704.85;264685;1089;22776;-80
2021/06/25 16:30:26;;;;;;;8.05;7.35;;;;;;;24.21;63.14;98706.71;264245;1090;25102;-80
2021/06/25 16:35:31;;;;;;;7.45;6.80;;;;;;;23.91;63.42;98707.70;264450;1088;22792;-80
2021/06/25 16:40:34;;;;;;;7.75;7.05;;;;;;;23.62;64.07;98708.61;265034;1088;25491;-81
2021/06/25 16:45:38;;;;;;;7.75;7.15;;;;;;;23.51;64.71;98695.62;265054;1090;22841;-81
2021/06/25 16:50:42;;;;;;;7.35;6.65;;;;;;;23.66;64.97;98702.00;265217;1090;22626;-81
2021/06/25 16:55:48;;;;;;;7.58;6.90;;;;;;;23.69;65.10;98708.66;264808;1089;22783;-81
2021/06/25 17:00:52;;;;;;;8.78;8.08;;;;;;;23.61;65.39;98707.03;265470;1089;22784;-81
2021/06/25 17:05:56;;;;;;;9.18;8.38;;;;;;;23.66;65.61;98710.20;265313;1090;22841;-80
2021/06/25 17:11:01;;;;;;;8.03;7.43;;;;;;;24.14;66.67;98720.34;264519;1089;24167;-80
2021/06/25 17:16:07;;;;;;;8.28;7.58;;;;;;;24.86;65.48;98730.92;264955;1089;22720;-81
2021/06/25 17:21:10;;;;;;;9.50;8.60;;;;;;;25.10;64.60;98737.67;265141;1089;22926;-80
2021/06/25 17:26:13;;;;;;;8.35;7.73;;;;;;;25.50;64.41;98746.00;265654;1089;24179;-80
2021/06/25 17:31:18;;;;;;;8.73;7.90;;;;;;;25.65;62.94;98749.55;265292;1089;25796;-80
2021/06/25 17:36:21;;;;;;;8.20;7.60;;;;;;;25.42;62.38;98762.45;264965;1088;24066;-80
2021/06/25 17:41:25;;;;;;;7.90;7.30;;;;;;;24.89;62.01;98765.75;265376;1089;22833;-80
2021/06/25 17:46:28;;;;;;;8.03;7.30;;;;;;;24.32;62.37;98767.00;265234;1090;22835;-80
2021/06/25 17:51:32;;;;;;;7.93;7.23;;;;;;;23.61;62.76;98769.91;264589;1089;25759;-80
2021/06/25 17:56:36;;;;;;;7.25;6.63;;;;;;;23.04;63.62;98779.83;265325;1090;25883;-79
2021/06/25 18:01:40;;;;;;;7.08;6.48;;;;;;;22.52;64.68;98787.71;264777;1088;22931;-80
2021/06/25 18:06:47;;;;;;;7.78;7.10;;;;;;;22.04;65.62;98792.81;264793;1088;22650;-80
2021/06/25 18:12:02;;;;;;;7.03;6.43;;;;;;;21.69;66.77;98785.59;265552;1088;22733;-81
2021/06/25 18:17:11;;;;;;;7.70;7.10;;;;;;;21.43;67.81;98778.08;264855;1090;27113;-80
2021/06/25 18:22:16;;;;;;;8.75;7.88;;;;;;;21.19;68.60;98769.07;265230;1088;26388;-80
2021/06/25 18:27:20;;;;;;;8.40;7.63;;;;;;;20.96;69.24;98769.02;264892;1089;22785;-80
2021/06/25 18:32:23;;;;;;;7.33;6.73;;;;;;;20.67;69.41;98761.02;264825;1089;22756;-80
2021/06/25 18:37:28;;;;;;;8.70;7.90;;;;;;;20.40;70.40;98765.47;264782;1088;25774;-80
2021/06/25 18:42:32;;;;;;;9.18;8.48;;;;;;;20.26;71.20;98749.61;264732;1090;24186;-80
2021/06/25 18:47:36;;;;;;;9.25;8.35;;;;;;;20.08;71.27;98751.91;264119;1088;25877;-79
2021/06/25 18:52:39;;;;;;;8.60;7.80;;;;;;;19.89;71.88;98752.61;264518;1090;22764;-80
2021/06/25 18:57:44;;;;;;;8.73;7.93;;;;;;;19.70;72.39;98761.45;264317;1089;23466;-80
2021/06/25 19:02:56;;;;;;;9.60;8.60;;;;;;;19.53;73.33;98759.05;264726;1089;22753;-80
2021/06/25 19:08:18;;;;;;;9.83;8.87;;;;;;;19.34;73.91;98765.94;264632;1089;26491;-80
2021/06/25 19:13:22;;;;;;;9.00;8.20;;;;;;;19.29;74.40;98775.14;264443;1088;23431;-80
2021/06/25 19:18:26;;;;;;;8.70;7.90;;;;;;;19.22;74.98;98780.34;264908;1090;22767;-80
2021/06/25 19:23:29;;;;;;;9.30;8.30;;;;;;;19.12;74.79;98775.42;264450;1088;24368;-79
2021/06/25 19:28:33;;;;;;;8.90;8.10;;;;;;;19.03;75.26;98772.05;264545;1089;23814;-80
2021/06/25 19:33:37;;;;;;;8.83;8.03;;;;;;;18.91;75.40;98765.53;263594;1090;22714;-79
2021/06/25 19:38:40;;;;;;;9.15;8.35;;;;;;;18.83;75.81;98766.45;264080;1088;22777;-79
2021/06/25 19:43:44;;;;;;;9.67;8.50;;;;;;;18.78;76.61;98780.25;263363;1088;22847;-79
2021/06/25 19:48:48;;;;;;;12.25;10.95;;;;;;;18.74;76.82;98771.98;263426;1089;22771;-80
2021/06/25 19:53:51;;;;;;;10.10;8.75;;;;;;;18.67;77.04;98765.58;263151;1090;23384;-80
2021/06/25 19:58:55;;;;;;;10.80;9.20;;;;;;;18.61;77.37;98765.80;264372;1088;25995;-80
2021/06/25 20:03:59;;;;;;;9.17;8.37;;;;;;;18.54;77.54;98756.68;264280;1089;22950;-79
2021/06/25 20:09:03;;;;;;;9.30;8.50;;;;;;;18.50;77.95;98758.49;264231;1089;24476;-80
2021/06/25 20:14:07;;;;;;;10.27;9.30;;;;;;;18.43;78.07;98759.84;264505;1089;27623;-80
2021/06/25 20:19:10;;;;;;;10.50;9.40;;;;;;;18.36;78.16;98756.13;264460;1090;23072;-79
2021/06/25 20:24:16;;;;;;;10.85;9.85;;;;;;;18.25;78.43;98753.08;264005;1088;22920;-79
2021/06/25 20:29:22;;;;;;;11.85;10.65;;;;;;;18.09;78.44;98759.19;263521;1090;22866;-79
2021/06/25 20:34:29;;;;;;;12.07;10.87;;;;;;;17.94;79.04;98752.51;263358;1090;23015;-80
2021/06/25 20:39:33;;;;;;;12.45;11.25;;;;;;;17.85;79.25;98746.39;263704;1090;24094;-79
2021/06/25 20:44:36;;;;;;;11.80;10.60;;;;;;;17.75;79.29;98734.08;263503;1090;25778;-79
2021/06/25 20:49:41;;;;;;;12.05;10.55;;;;;;;17.66;79.68;98748.84;263510;1090;22926;-81
2021/06/25 20:54:46;;;;;;;11.80;10.70;;;;;;;17.60;79.99;98768.02;264040;1089;22820;-79
2021/06/25 20:59:50;;;;;;;11.45;10.35;;;;;;;17.57;80.12;98773.30;263443;1089;25886;-79
2021/06/25 21:04:54;;;;;;;11.30;10.30;;;;;;;17.52;80.15;98768.89;263418;1089;22780;-80
2021/06/25 21:09:57;;;;;;;11.60;10.40;;;;;;;17.45;80.45;98776.78;263836;1089;22786;-79
2021/06/25 21:15:01;;;;;;;15.70;10.30;;;;;;;17.42;80.84;98785.58;263473;1088;22837;-80
2021/06/25 21:20:06;;;;;;;11.45;10.45;;;;;;;17.41;81.22;98797.52;264182;1089;25979;-80
2021/06/25 21:25:11;;;;;;;13.20;11.00;;;;;;;17.34;81.10;98776.40;264192;1090;22707;-80
2021/06/25 21:30:16;;;;;;;11.20;10.10;;;;;;;17.31;81.34;98798.73;263987;1088;22777;-79
2021/06/25 21:35:20;;;;;;;11.70;10.50;;;;;;;17.21;81.47;98791.80;263515;1090;22743;-80
2021/06/25 21:40:24;;;;;;;12.43;10.57;;;;;;;17.19;81.72;98780.50;264771;1090;25908;-79
2021/06/25 21:45:28;;;;;;;11.60;10.47;;;;;;;17.18;82.02;98794.38;265001;1090;25810;-80
2021/06/25 21:50:31;;;;;;;11.07;10.00;;;;;;;17.16;81.93;98789.30;265185;1089;22732;-80
2021/06/25 21:55:35;;;;;;;12.60;11.25;;;;;;;17.11;82.12;98778.69;264505;1090;24098;-79
2021/06/25 22:00:38;;;;;;;12.75;11.10;;;;;;;17.06;82.18;98782.37;263422;1089;22857;-80
2021/06/25 22:05:45;;;;;;;13.00;11.65;;;;;;;17.01;82.23;98773.66;264031;1090;22799;-80
2021/06/25 22:10:51;;;;;;;13.75;11.20;;;;;;;16.99;82.46;98789.45;263294;1088;25758;-80
2021/06/25 22:15:55;;;;;;;15.45;11.25;;;;;;;16.97;82.52;98786.27;263980;1089;25906;-80
2021/06/25 22:21:00;;;;;;;12.70;10.55;;;;;;;16.92;82.61;98796.16;264232;1089;26000;-81
2021/06/25 22:26:06;;;;;;;12.60;11.30;;;;;;;16.88;82.58;98786.31;263999;1089;22914;-79
2021/06/25 22:31:09;;;;;;;12.15;10.80;;;;;;;16.83;82.93;98794.61;263995;1089;22744;-79
2021/06/25 22:36:12;;;;;;;12.20;10.35;;;;;;;16.75;82.90;98783.53;264063;1090;25892;-79
2021/06/25 22:41:15;;;;;;;11.87;10.63;;;;;;;16.67;82.98;98808.72;264061;1089;22797;-79
2021/06/25 22:46:18;;;;;;;11.90;10.15;;;;;;;16.64;83.34;98822.13;264190;1089;26296;-79
2021/06/25 22:51:23;;;;;;;11.10;9.95;;;;;;;16.57;83.30;98828.04;263541;1089;23790;-79
2021/06/25 22:56:26;;;;;;;11.95;10.35;;;;;;;16.58;83.60;98833.12;264291;1089;22910;-79
2021/06/25 23:01:33;;;;;;;13.97;10.60;;;;;;;16.66;83.88;98838.80;264190;1090;22983;-80
2021/06/25 23:06:37;;;;;;;11.40;10.00;;;;;;;16.70;84.04;98835.11;264749;1090;22853;-80
2021/06/25 23:11:41;;;;;;;11.47;10.27;;;;;;;16.79;83.65;98831.56;264509;1090;22752;-79
2021/06/25 23:16:46;;;;;;;10.77;9.63;;;;;;;16.84;84.04;98834.86;263599;1088;25977;-80
2021/06/25 23:21:50;;;;;;;13.90;9.67;;;;;;;16.91;84.19;98843.30;264593;1090;22797;-80
2021/06/25 23:26:53;;;;;;;12.70;9.37;;;;;;;16.94;83.95;98847.23;264644;1089;23857;-80
2021/06/25 23:31:56;;;;;;;11.10;10.00;;;;;;;16.97;84.00;98854.72;264883;1089;22857;-80
2021/06/25 23:37:00;;;;;;;12.65;10.15;;;;;;;16.99;84.20;98843.56;263960;1090;22902;-80